createdAt,value
2023-01-21T00:00:03.828Z,1003.74
2023-01-21T00:01:03.840Z,1003.76
2023-01-21T00:02:03.848Z,1003.77
2023-01-21T00:03:03.922Z,1003.78
2023-01-21T00:04:03.785Z,1003.78
2023-01-21T00:05:03.780Z,1003.78
2023-01-21T00:06:03.767Z,1003.79
2023-01-21T00:07:03.786Z,1003.79
2023-01-21T00:08:03.746Z,1003.81
2023-01-21T00:09:03.743Z,1003.83
2023-01-21T00:10:03.730Z,1003.84
2023-01-21T00:11:03.724Z,1003.85
2023-01-21T00:12:03.712Z,1003.84
2023-01-21T00:13:03.705Z,1003.85
2023-01-21T00:14:03.698Z,1003.86
2023-01-21T00:15:03.692Z,1003.87
2023-01-21T00:16:03.852Z,1003.89
2023-01-21T00:17:03.671Z,1003.90
2023-01-21T00:18:03.653Z,1003.91
2023-01-21T00:19:03.656Z,1003.92
2023-01-21T00:20:03.641Z,1003.94
2023-01-21T00:21:03.642Z,1003.94
2023-01-21T00:22:03.625Z,1003.96
2023-01-21T00:23:03.610Z,1003.97
2023-01-21T00:24:03.594Z,1003.98
2023-01-21T00:25:03.592Z,1003.99
2023-01-21T00:26:03.577Z,1003.99
2023-01-21T00:27:03.586Z,1004.00
2023-01-21T00:28:03.558Z,1004.02
2023-01-21T00:29:03.553Z,1004.05
2023-01-21T00:30:03.541Z,1004.07
2023-01-21T00:31:03.665Z,1004.11
2023-01-21T00:32:03.529Z,1004.13
2023-01-21T00:33:03.520Z,1004.16
2023-01-21T00:34:03.504Z,1004.19
2023-01-21T00:35:03.497Z,1004.22
2023-01-21T00:36:03.492Z,1004.24
2023-01-21T00:37:03.487Z,1004.27
2023-01-21T00:38:03.464Z,1004.28
2023-01-21T00:39:03.464Z,1004.30
2023-01-21T00:40:03.451Z,1004.31
2023-01-21T00:41:03.459Z,1004.32
2023-01-21T00:42:03.427Z,1004.31
2023-01-21T00:43:03.422Z,1004.33
2023-01-21T00:44:03.406Z,1004.33
2023-01-21T00:45:03.407Z,1004.34
2023-01-21T00:46:03.494Z,1004.35
2023-01-21T00:47:03.395Z,1004.35
2023-01-21T00:48:03.372Z,1004.36
2023-01-21T00:49:03.409Z,1004.38
2023-01-21T00:50:03.351Z,1004.39
2023-01-21T00:51:03.401Z,1004.40
2023-01-21T00:52:03.336Z,1004.40
2023-01-21T00:53:03.338Z,1004.41
2023-01-21T00:54:03.315Z,1004.41
2023-01-21T00:55:03.318Z,1004.42
2023-01-21T00:56:03.297Z,1004.42
2023-01-21T00:57:03.304Z,1004.45
2023-01-21T00:58:03.286Z,1004.48
2023-01-21T00:59:03.269Z,1004.51
2023-01-21T01:00:03.262Z,1004.53
2023-01-21T01:01:03.264Z,1004.53
2023-01-21T01:02:03.244Z,1004.53
2023-01-21T01:03:03.238Z,1004.54
2023-01-21T01:04:03.222Z,1004.57
2023-01-21T01:05:03.219Z,1004.58
2023-01-21T01:06:03.212Z,1004.60
2023-01-21T01:07:03.214Z,1004.61
2023-01-21T01:08:03.185Z,1004.61
2023-01-21T01:09:03.188Z,1004.61
2023-01-21T01:10:03.165Z,1004.62
2023-01-21T01:11:03.168Z,1004.64
2023-01-21T01:12:03.157Z,1004.66
2023-01-21T01:13:03.144Z,1004.67
2023-01-21T01:14:03.130Z,1004.68
2023-01-21T01:15:03.135Z,1004.69
2023-01-21T01:16:03.238Z,1004.70
2023-01-21T01:17:03.113Z,1004.71
2023-01-21T01:18:03.090Z,1004.71
2023-01-21T01:19:03.089Z,1004.74
2023-01-21T01:20:03.093Z,1004.75
2023-01-21T01:21:03.072Z,1004.77
2023-01-21T01:22:03.059Z,1004.79
2023-01-21T01:23:03.057Z,1004.81
2023-01-21T01:24:03.040Z,1004.82
2023-01-21T01:25:03.028Z,1004.85
2023-01-21T01:26:03.013Z,1004.87
2023-01-21T01:27:03.015Z,1004.89
2023-01-21T01:28:02.996Z,1004.91
2023-01-21T01:29:02.990Z,1004.95
2023-01-21T01:30:02.981Z,1004.98
2023-01-21T01:31:03.134Z,1005.00
2023-01-21T01:32:02.983Z,1005.00
2023-01-21T01:33:02.953Z,1004.99
2023-01-21T01:34:02.942Z,1005.01
2023-01-21T01:35:02.936Z,1005.01
2023-01-21T01:36:02.922Z,1005.02
2023-01-21T01:37:02.918Z,1005.03
2023-01-21T01:38:02.908Z,1005.05
2023-01-21T01:39:02.900Z,1005.07
2023-01-21T01:40:02.887Z,1005.09
2023-01-21T01:41:02.886Z,1005.12
2023-01-21T01:42:02.883Z,1005.16
2023-01-21T01:43:02.865Z,1005.18
2023-01-21T01:44:02.845Z,1005.19
2023-01-21T01:45:02.840Z,1005.19
2023-01-21T01:46:02.857Z,1005.20
2023-01-21T01:47:02.827Z,1005.21
2023-01-21T01:49:14.540Z,1005.23
2023-01-21T01:50:15.964Z,1005.24
2023-01-21T01:51:15.542Z,1005.24
2023-01-21T01:52:15.509Z,1005.24
2023-01-21T01:53:15.500Z,1005.24
2023-01-21T01:54:15.495Z,1005.25
2023-01-21T01:55:15.502Z,1005.26
2023-01-21T01:56:15.479Z,1005.27
2023-01-21T01:57:15.465Z,1005.30
2023-01-21T01:58:15.449Z,1005.32
2023-01-21T01:59:15.456Z,1005.32
2023-01-21T02:00:15.782Z,1005.32
2023-01-21T02:01:15.443Z,1005.33
2023-01-21T02:02:15.420Z,1005.34
2023-01-21T02:03:15.404Z,1005.35
2023-01-21T02:04:15.391Z,1005.35
2023-01-21T02:05:15.386Z,1005.36
2023-01-21T02:06:15.370Z,1005.36
2023-01-21T02:07:15.380Z,1005.37
2023-01-21T02:08:15.351Z,1005.39
2023-01-21T02:09:15.346Z,1005.40
2023-01-21T02:10:15.682Z,1005.41
2023-01-21T02:11:15.342Z,1005.42
2023-01-21T02:12:15.321Z,1005.42
2023-01-21T02:13:15.309Z,1005.43
2023-01-21T02:14:15.297Z,1005.43
2023-01-21T02:15:15.295Z,1005.45
2023-01-21T02:16:15.361Z,1005.48
2023-01-21T02:17:15.278Z,1005.50
2023-01-21T02:18:15.259Z,1005.50
2023-01-21T02:19:15.252Z,1005.52
2023-01-21T02:20:15.670Z,1005.53
2023-01-21T02:21:15.237Z,1005.54
2023-01-21T02:22:15.224Z,1005.56
2023-01-21T02:23:15.216Z,1005.57
2023-01-21T02:24:15.198Z,1005.59
2023-01-21T02:25:15.206Z,1005.60
2023-01-21T02:26:15.179Z,1005.60
2023-01-21T02:27:15.184Z,1005.59
2023-01-21T02:28:15.168Z,1005.60
2023-01-21T02:29:15.158Z,1005.60
2023-01-21T02:30:15.500Z,1005.61
2023-01-21T02:31:15.377Z,1005.61
2023-01-21T02:32:15.130Z,1005.62
2023-01-21T02:33:15.121Z,1005.62
2023-01-21T02:34:15.115Z,1005.63
2023-01-21T02:35:15.102Z,1005.63
2023-01-21T02:36:15.088Z,1005.62
2023-01-21T02:37:15.089Z,1005.63
2023-01-21T02:38:15.068Z,1005.65
2023-01-21T02:39:15.062Z,1005.67
2023-01-21T02:40:15.392Z,1005.68
2023-01-21T02:41:15.058Z,1005.69
2023-01-21T02:42:15.039Z,1005.70
2023-01-21T02:43:15.026Z,1005.71
2023-01-21T02:44:15.010Z,1005.72
2023-01-21T02:45:15.007Z,1005.73
2023-01-21T02:46:15.001Z,1005.74
2023-01-21T02:47:15.001Z,1005.75
2023-01-21T02:48:14.990Z,1005.76
2023-01-21T02:49:14.972Z,1005.75
2023-01-21T02:50:15.307Z,1005.77
2023-01-21T02:51:14.976Z,1005.79
2023-01-21T02:52:14.967Z,1005.79
2023-01-21T02:53:14.935Z,1005.82
2023-01-21T02:54:14.919Z,1005.84
2023-01-21T02:55:14.917Z,1005.85
2023-01-21T02:56:14.904Z,1005.87
2023-01-21T02:57:14.912Z,1005.89
2023-01-21T02:58:14.885Z,1005.90
2023-01-21T02:59:14.876Z,1005.91
2023-01-21T03:00:15.183Z,1005.92
2023-01-21T03:01:14.909Z,1005.93
2023-01-21T03:02:14.899Z,1005.93
2023-01-21T03:03:14.842Z,1005.93
2023-01-21T03:04:14.830Z,1005.94
2023-01-21T03:05:14.822Z,1005.94
2023-01-21T03:06:14.805Z,1005.97
2023-01-21T03:07:14.815Z,1005.99
2023-01-21T03:08:14.786Z,1006.00
2023-01-21T03:09:14.787Z,1006.01
2023-01-21T03:10:15.084Z,1006.00
2023-01-21T03:11:14.787Z,1005.99
2023-01-21T03:12:14.819Z,1005.98
2023-01-21T03:13:14.746Z,1005.98
2023-01-21T03:14:14.733Z,1006.00
2023-01-21T03:15:14.726Z,1006.01
2023-01-21T03:16:14.743Z,1006.01
2023-01-21T03:17:14.724Z,1006.00
2023-01-21T03:18:14.697Z,1005.99
2023-01-21T03:19:14.694Z,1005.98
2023-01-21T03:20:14.767Z,1006.00
2023-01-21T03:21:14.680Z,1005.99
2023-01-21T03:22:14.718Z,1005.99
2023-01-21T03:23:14.659Z,1005.98
2023-01-21T03:24:14.637Z,1005.98
2023-01-21T03:25:14.643Z,1005.99
2023-01-21T03:26:14.642Z,1006.01
2023-01-21T03:27:14.651Z,1006.02
2023-01-21T03:28:14.603Z,1006.02
2023-01-21T03:29:14.606Z,1006.03
2023-01-21T03:30:14.766Z,1006.03
2023-01-21T03:31:14.648Z,1006.04
2023-01-21T03:32:14.627Z,1006.05
2023-01-21T03:33:14.565Z,1006.06
2023-01-21T03:34:14.547Z,1006.05
2023-01-21T03:35:14.542Z,1006.06
2023-01-21T03:36:14.527Z,1006.06
2023-01-21T03:37:14.547Z,1006.06
2023-01-21T03:38:14.521Z,1006.06
2023-01-21T03:39:14.506Z,1006.06
2023-01-21T03:40:14.815Z,1006.06
2023-01-21T03:41:14.503Z,1006.06
2023-01-21T03:42:14.472Z,1006.09
2023-01-21T03:43:14.471Z,1006.09
2023-01-21T03:44:14.457Z,1006.10
2023-01-21T03:45:14.454Z,1006.12
2023-01-21T03:46:14.441Z,1006.13
2023-01-21T03:47:14.443Z,1006.13
2023-01-21T03:48:14.419Z,1006.15
2023-01-21T03:49:14.411Z,1006.17
2023-01-21T03:50:14.645Z,1006.19
2023-01-21T03:51:14.461Z,1006.21
2023-01-21T03:52:14.383Z,1006.24
2023-01-21T03:53:14.381Z,1006.22
2023-01-21T03:54:14.362Z,1006.20
2023-01-21T03:55:14.372Z,1006.17
2023-01-21T03:56:14.347Z,1006.19
2023-01-21T03:57:14.363Z,1006.17
2023-01-21T03:58:14.327Z,1006.17
2023-01-21T03:59:14.317Z,1006.18
2023-01-21T04:00:14.457Z,1006.14
2023-01-21T04:01:14.371Z,1006.21
2023-01-21T04:02:14.341Z,1006.21
2023-01-21T04:03:14.286Z,1006.24
2023-01-21T04:04:14.272Z,1006.25
2023-01-21T04:05:14.280Z,1006.24
2023-01-21T04:06:14.249Z,1006.24
2023-01-21T04:07:14.268Z,1006.23
2023-01-21T04:08:14.238Z,1006.24
2023-01-21T04:09:14.232Z,1006.27
2023-01-21T04:10:14.514Z,1006.25
2023-01-21T04:11:14.211Z,1006.25
2023-01-21T04:12:14.196Z,1006.24
2023-01-21T04:13:14.192Z,1006.25
2023-01-21T04:14:14.179Z,1006.27
2023-01-21T04:15:14.175Z,1006.26
2023-01-21T04:16:14.213Z,1006.24
2023-01-21T04:17:14.159Z,1006.27
2023-01-21T04:18:14.144Z,1006.26
2023-01-21T04:19:14.133Z,1006.27
2023-01-21T04:20:14.502Z,1006.26
2023-01-21T04:21:14.115Z,1006.25
2023-01-21T04:22:14.108Z,1006.24
2023-01-21T04:23:14.103Z,1006.24
2023-01-21T04:24:14.084Z,1006.27
2023-01-21T04:25:14.080Z,1006.29
2023-01-21T04:26:14.064Z,1006.31
2023-01-21T04:27:14.057Z,1006.25
2023-01-21T04:28:14.050Z,1006.24
2023-01-21T04:29:14.041Z,1006.26
2023-01-21T04:30:14.054Z,1006.28
2023-01-21T04:31:14.023Z,1006.28
2023-01-21T04:32:14.024Z,1006.31
2023-01-21T04:33:14.009Z,1006.34
2023-01-21T04:34:13.989Z,1006.32
2023-01-21T04:35:13.994Z,1006.32
2023-01-21T04:36:13.987Z,1006.35
2023-01-21T04:37:13.961Z,1006.34
2023-01-21T04:38:13.953Z,1006.34
2023-01-21T04:39:14.065Z,1006.38
2023-01-21T04:40:13.939Z,1006.41
2023-01-21T04:41:13.934Z,1006.40
2023-01-21T04:42:13.914Z,1006.38
2023-01-21T04:43:13.912Z,1006.40
2023-01-21T04:44:13.901Z,1006.40
2023-01-21T04:45:13.891Z,1006.40
2023-01-21T04:46:13.945Z,1006.38
2023-01-21T04:47:13.865Z,1006.37
2023-01-21T04:48:13.862Z,1006.42
2023-01-21T04:49:13.867Z,1006.39
2023-01-21T04:50:13.862Z,1006.40
2023-01-21T04:51:13.873Z,1006.37
2023-01-21T04:52:13.823Z,1006.37
2023-01-21T04:53:13.815Z,1006.34
2023-01-21T04:54:13.806Z,1006.33
2023-01-21T04:55:13.798Z,1006.35
2023-01-21T04:56:13.789Z,1006.34
2023-01-21T04:57:13.777Z,1006.36
2023-01-21T04:58:13.773Z,1006.38
2023-01-21T04:59:13.752Z,1006.38
2023-01-21T05:00:13.863Z,1006.41
2023-01-21T05:01:13.802Z,1006.40
2023-01-21T05:02:13.750Z,1006.40
2023-01-21T05:03:13.720Z,1006.39
2023-01-21T05:04:13.712Z,1006.37
2023-01-21T05:05:13.702Z,1006.41
2023-01-21T05:06:13.692Z,1006.38
2023-01-21T05:07:13.679Z,1006.40
2023-01-21T05:08:13.685Z,1006.39
2023-01-21T05:09:13.669Z,1006.43
2023-01-21T05:10:13.875Z,1006.39
2023-01-21T05:11:13.640Z,1006.39
2023-01-21T05:12:13.641Z,1006.41
2023-01-21T05:13:13.644Z,1006.42
2023-01-21T05:14:13.617Z,1006.43
2023-01-21T05:15:13.603Z,1006.43
2023-01-21T05:16:13.598Z,1006.44
2023-01-21T05:17:13.589Z,1006.44
2023-01-21T05:18:13.585Z,1006.44
2023-01-21T05:19:13.621Z,1006.44
2023-01-21T05:20:13.605Z,1006.44
2023-01-21T05:21:13.547Z,1006.45
2023-01-21T05:22:13.544Z,1006.44
2023-01-21T05:23:13.535Z,1006.47
2023-01-21T05:24:13.527Z,1006.46
2023-01-21T05:25:13.512Z,1006.46
2023-01-21T05:26:13.521Z,1006.45
2023-01-21T05:27:13.502Z,1006.47
2023-01-21T05:28:13.494Z,1006.48
2023-01-21T05:29:13.485Z,1006.47
2023-01-21T05:30:13.480Z,1006.47
2023-01-21T05:31:13.625Z,1006.48
2023-01-21T05:32:13.454Z,1006.48
2023-01-21T05:33:13.443Z,1006.48
2023-01-21T05:34:13.438Z,1006.49
2023-01-21T05:35:13.417Z,1006.49
2023-01-21T05:36:13.417Z,1006.51
2023-01-21T05:37:13.404Z,1006.52
2023-01-21T05:38:13.404Z,1006.51
2023-01-21T05:39:13.382Z,1006.50
2023-01-21T05:40:13.383Z,1006.50
2023-01-21T05:41:13.364Z,1006.49
2023-01-21T05:42:13.367Z,1006.53
2023-01-21T05:43:13.360Z,1006.51
2023-01-21T05:44:13.339Z,1006.51
2023-01-21T05:45:13.324Z,1006.54
2023-01-21T05:46:13.355Z,1006.54
2023-01-21T05:47:13.310Z,1006.57
2023-01-21T05:48:13.302Z,1006.57
2023-01-21T05:49:13.286Z,1006.56
2023-01-21T05:50:13.280Z,1006.58
2023-01-21T05:51:13.266Z,1006.56
2023-01-21T05:52:13.269Z,1006.59
2023-01-21T05:53:13.252Z,1006.59
2023-01-21T05:54:13.251Z,1006.59
2023-01-21T05:55:13.235Z,1006.59
2023-01-21T05:56:13.227Z,1006.58
2023-01-21T05:57:13.217Z,1006.61
2023-01-21T05:58:13.234Z,1006.64
2023-01-21T05:59:13.211Z,1006.65
2023-01-21T06:00:13.193Z,1006.64
2023-01-21T06:01:13.187Z,1006.64
2023-01-21T06:02:13.195Z,1006.67
2023-01-21T06:03:13.197Z,1006.65
2023-01-21T06:04:13.163Z,1006.66
2023-01-21T06:05:13.140Z,1006.65
2023-01-21T06:06:13.140Z,1006.70
2023-01-21T06:07:13.125Z,1006.71
2023-01-21T06:08:13.136Z,1006.70
2023-01-21T06:09:13.114Z,1006.73
2023-01-21T06:10:13.104Z,1006.76
2023-01-21T06:11:13.091Z,1006.78
2023-01-21T06:12:13.100Z,1006.75
2023-01-21T06:13:13.087Z,1006.77
2023-01-21T06:14:13.066Z,1006.77
2023-01-21T06:15:13.056Z,1006.80
2023-01-21T06:16:13.097Z,1006.84
2023-01-21T06:17:13.032Z,1006.84
2023-01-21T06:18:13.035Z,1006.83
2023-01-21T06:19:13.010Z,1006.87
2023-01-21T06:20:13.011Z,1006.89
2023-01-21T06:21:12.993Z,1006.86
2023-01-21T06:22:12.991Z,1006.88
2023-01-21T06:23:13.017Z,1006.88
2023-01-21T06:24:12.967Z,1006.92
2023-01-21T06:25:12.956Z,1006.94
2023-01-21T06:26:12.958Z,1006.94
2023-01-21T06:27:12.936Z,1006.95
2023-01-21T06:28:12.941Z,1006.98
2023-01-21T06:29:12.921Z,1006.96
2023-01-21T06:30:12.919Z,1006.96
2023-01-21T06:31:13.051Z,1007.01
2023-01-21T06:32:12.890Z,1007.03
2023-01-21T06:33:12.897Z,1007.04
2023-01-21T06:34:12.891Z,1007.07
2023-01-21T06:35:12.857Z,1007.06
2023-01-21T06:36:12.854Z,1007.04
2023-01-21T06:37:12.839Z,1007.05
2023-01-21T06:38:12.852Z,1007.04
2023-01-21T06:39:12.827Z,1007.06
2023-01-21T06:40:12.765Z,1007.09
2023-01-21T06:41:12.801Z,1007.10
2023-01-21T06:42:12.757Z,1007.11
2023-01-21T06:43:12.754Z,1007.12
2023-01-21T06:44:12.726Z,1007.13
2023-01-21T06:45:12.709Z,1007.12
2023-01-21T06:46:12.755Z,1007.11
2023-01-21T06:47:12.689Z,1007.13
2023-01-21T06:48:12.705Z,1007.13
2023-01-21T06:49:12.671Z,1007.16
2023-01-21T06:50:12.688Z,1007.16
2023-01-21T06:51:12.765Z,1007.17
2023-01-21T06:52:12.646Z,1007.17
2023-01-21T06:53:12.653Z,1007.21
2023-01-21T06:54:12.631Z,1007.21
2023-01-21T06:55:12.616Z,1007.21
2023-01-21T06:56:12.617Z,1007.23
2023-01-21T06:57:12.594Z,1007.27
2023-01-21T06:58:12.587Z,1007.27
2023-01-21T06:59:12.581Z,1007.25
2023-01-21T07:00:12.569Z,1007.22
2023-01-21T07:01:12.595Z,1007.24
2023-01-21T07:02:12.556Z,1007.26
2023-01-21T07:03:12.537Z,1007.28
2023-01-21T07:04:12.535Z,1007.33
2023-01-21T07:05:12.518Z,1007.34
2023-01-21T07:06:12.510Z,1007.35
2023-01-21T07:07:12.505Z,1007.35
2023-01-21T07:08:12.490Z,1007.37
2023-01-21T07:09:12.482Z,1007.40
2023-01-21T07:10:12.480Z,1007.40
2023-01-21T07:11:12.467Z,1007.37
2023-01-21T07:12:12.453Z,1007.40
2023-01-21T07:13:12.431Z,1007.44
2023-01-21T07:14:12.437Z,1007.48
2023-01-21T07:15:12.416Z,1007.46
2023-01-21T07:16:12.520Z,1007.43
2023-01-21T07:17:12.396Z,1007.43
2023-01-21T07:18:12.393Z,1007.46
2023-01-21T07:19:12.371Z,1007.45
2023-01-21T07:20:12.366Z,1007.48
2023-01-21T07:21:12.371Z,1007.47
2023-01-21T07:22:12.352Z,1007.49
2023-01-21T07:23:12.335Z,1007.49
2023-01-21T07:24:12.342Z,1007.53
2023-01-21T07:25:12.313Z,1007.52
2023-01-21T07:26:12.311Z,1007.50
2023-01-21T07:27:12.295Z,1007.50
2023-01-21T07:28:12.292Z,1007.51
2023-01-21T07:29:12.296Z,1007.53
2023-01-21T07:30:12.274Z,1007.58
2023-01-21T07:31:12.334Z,1007.59
2023-01-21T07:32:12.250Z,1007.56
2023-01-21T07:33:12.247Z,1007.57
2023-01-21T07:34:12.230Z,1007.57
2023-01-21T07:35:12.214Z,1007.58
2023-01-21T07:36:12.218Z,1007.59
2023-01-21T07:37:12.195Z,1007.58
2023-01-21T07:38:12.197Z,1007.60
2023-01-21T07:39:12.179Z,1007.60
2023-01-21T07:40:12.180Z,1007.63
2023-01-21T07:41:12.158Z,1007.64
2023-01-21T07:42:12.159Z,1007.66
2023-01-21T07:43:12.134Z,1007.66
2023-01-21T07:44:12.136Z,1007.64
2023-01-21T07:45:12.117Z,1007.64
2023-01-21T07:46:12.132Z,1007.67
2023-01-21T07:47:12.105Z,1007.68
2023-01-21T07:48:12.091Z,1007.70
2023-01-21T07:49:12.083Z,1007.71
2023-01-21T07:50:12.077Z,1007.72
2023-01-21T07:51:12.164Z,1007.72
2023-01-21T07:52:12.060Z,1007.74
2023-01-21T07:53:12.039Z,1007.70
2023-01-21T07:54:12.040Z,1007.70
2023-01-21T07:55:12.828Z,1007.69
2023-01-21T07:56:12.019Z,1007.67
2023-01-21T07:57:12.006Z,1007.68
2023-01-21T07:58:12.006Z,1007.67
2023-01-21T07:59:12.006Z,1007.66
2023-01-21T08:00:11.978Z,1007.67
2023-01-21T08:01:11.968Z,1007.66
2023-01-21T08:02:12.025Z,1007.69
2023-01-21T08:03:11.944Z,1007.71
2023-01-21T08:04:11.940Z,1007.68
2023-01-21T08:05:11.924Z,1007.69
2023-01-21T08:06:11.922Z,1007.68
2023-01-21T08:07:13.288Z,1007.66
2023-01-21T08:08:11.901Z,1007.69
2023-01-21T08:09:11.909Z,1007.71
2023-01-21T08:10:11.879Z,1007.71
2023-01-21T08:11:11.868Z,1007.69
2023-01-21T08:12:11.866Z,1007.71
2023-01-21T08:13:11.848Z,1007.70
2023-01-21T08:14:11.844Z,1007.69
2023-01-21T08:15:11.827Z,1007.69
2023-01-21T08:16:11.903Z,1007.75
2023-01-21T08:17:11.816Z,1007.75
2023-01-21T08:18:11.807Z,1007.76
2023-01-21T08:19:13.888Z,1007.75
2023-01-21T08:20:11.784Z,1007.73
2023-01-21T08:21:11.770Z,1007.74
2023-01-21T08:22:11.764Z,1007.75
2023-01-21T08:23:11.747Z,1007.76
2023-01-21T08:24:11.750Z,1007.77
2023-01-21T08:25:11.730Z,1007.79
2023-01-21T08:26:11.724Z,1007.80
2023-01-21T08:27:11.710Z,1007.79
2023-01-21T08:28:11.715Z,1007.82
2023-01-21T08:29:11.702Z,1007.82
2023-01-21T08:30:11.702Z,1007.84
2023-01-21T08:31:11.799Z,1007.87
2023-01-21T08:32:11.669Z,1007.88
2023-01-21T08:33:11.655Z,1007.89
2023-01-21T08:34:11.665Z,1007.92
2023-01-21T08:35:11.629Z,1007.96
2023-01-21T08:36:11.630Z,1007.98
2023-01-21T08:37:11.634Z,1008.01
2023-01-21T08:38:11.612Z,1008.02
2023-01-21T08:39:11.597Z,1008.02
2023-01-21T08:40:11.594Z,1008.04
2023-01-21T08:41:11.592Z,1008.03
2023-01-21T08:42:11.571Z,1008.03
2023-01-21T08:43:11.555Z,1008.05
2023-01-21T08:44:11.557Z,1008.04
2023-01-21T08:45:12.759Z,1008.02
2023-01-21T08:46:11.530Z,1008.03
2023-01-21T08:47:11.520Z,1008.02
2023-01-21T08:48:11.520Z,1008.02
2023-01-21T08:49:11.510Z,1008.04
2023-01-21T08:50:11.503Z,1008.05
2023-01-21T08:51:11.507Z,1008.08
2023-01-21T08:52:11.558Z,1008.11
2023-01-21T08:53:11.460Z,1008.12
2023-01-21T08:54:11.470Z,1008.13
2023-01-21T08:55:11.438Z,1008.15
2023-01-21T08:56:11.465Z,1008.16
2023-01-21T08:57:11.665Z,1008.18
2023-01-21T08:58:11.414Z,1008.21
2023-01-21T08:59:11.409Z,1008.23
2023-01-21T09:00:11.398Z,1008.24
2023-01-21T09:01:11.501Z,1008.27
2023-01-21T09:02:11.605Z,1008.27
2023-01-21T09:03:11.371Z,1008.28
2023-01-21T09:04:11.372Z,1008.31
2023-01-21T09:05:11.346Z,1008.32
2023-01-21T09:06:11.389Z,1008.34
2023-01-21T09:07:11.597Z,1008.32
2023-01-21T09:08:11.314Z,1008.34
2023-01-21T09:09:11.305Z,1008.35
2023-01-21T09:10:11.303Z,1008.40
2023-01-21T09:11:11.287Z,1008.43
2023-01-21T09:12:11.281Z,1008.45
2023-01-21T09:13:11.282Z,1008.46
2023-01-21T09:14:11.284Z,1008.48
2023-01-21T09:15:11.253Z,1008.51
2023-01-21T09:16:11.271Z,1008.49
2023-01-21T09:17:11.236Z,1008.50
2023-01-21T09:18:11.222Z,1008.53
2023-01-21T09:19:11.221Z,1008.55
2023-01-21T09:20:11.192Z,1008.58
2023-01-21T09:21:11.191Z,1008.57
2023-01-21T09:22:11.185Z,1008.57
2023-01-21T09:23:11.170Z,1008.59
2023-01-21T09:24:11.176Z,1008.60
2023-01-21T09:25:11.156Z,1008.57
2023-01-21T09:26:11.137Z,1008.57
2023-01-21T09:27:11.133Z,1008.55
2023-01-21T09:28:11.124Z,1008.52
2023-01-21T09:29:11.116Z,1008.52
2023-01-21T09:30:11.117Z,1008.55
2023-01-21T09:31:11.091Z,1008.52
2023-01-21T09:32:11.076Z,1008.50
2023-01-21T09:33:11.073Z,1008.51
2023-01-21T09:34:11.058Z,1008.50
2023-01-21T09:35:11.066Z,1008.49
2023-01-21T09:36:11.038Z,1008.52
2023-01-21T09:37:11.048Z,1008.53
2023-01-21T09:38:11.055Z,1008.48
2023-01-21T09:39:11.015Z,1008.51
2023-01-21T09:40:10.999Z,1008.52
2023-01-21T09:41:10.994Z,1008.53
2023-01-21T09:42:10.982Z,1008.54
2023-01-21T09:43:10.975Z,1008.55
2023-01-21T09:44:10.968Z,1008.53
2023-01-21T09:45:10.957Z,1008.57
2023-01-21T09:46:10.951Z,1008.60
2023-01-21T09:47:10.947Z,1008.63
2023-01-21T09:48:10.937Z,1008.69
2023-01-21T09:49:10.917Z,1008.66
2023-01-21T09:50:10.913Z,1008.66
2023-01-21T09:51:10.968Z,1008.67
2023-01-21T09:52:10.880Z,1008.69
2023-01-21T09:53:10.875Z,1008.67
2023-01-21T09:54:10.863Z,1008.68
2023-01-21T09:55:10.867Z,1008.70
2023-01-21T09:56:10.844Z,1008.69
2023-01-21T09:57:10.862Z,1008.72
2023-01-21T09:58:10.829Z,1008.76
2023-01-21T09:59:10.860Z,1008.74
2023-01-21T10:00:10.813Z,1008.75
2023-01-21T10:01:10.838Z,1008.76
2023-01-21T10:02:10.806Z,1008.73
2023-01-21T10:03:10.776Z,1008.74
2023-01-21T10:04:10.791Z,1008.73
2023-01-21T10:05:10.770Z,1008.75
2023-01-21T10:06:10.743Z,1008.76
2023-01-21T10:07:10.752Z,1008.80
2023-01-21T10:08:10.722Z,1008.84
2023-01-21T10:09:10.720Z,1008.85
2023-01-21T10:10:10.713Z,1008.88
2023-01-21T10:11:10.697Z,1008.85
2023-01-21T10:12:10.713Z,1008.86
2023-01-21T10:13:10.689Z,1008.88
2023-01-21T10:14:10.665Z,1008.85
2023-01-21T10:15:10.674Z,1008.88
2023-01-21T10:16:10.647Z,1008.89
2023-01-21T10:17:10.645Z,1008.91
2023-01-21T10:18:10.623Z,1008.93
2023-01-21T10:19:10.619Z,1008.94
2023-01-21T10:20:10.634Z,1008.94
2023-01-21T10:21:10.618Z,1008.93
2023-01-21T10:22:10.598Z,1008.91
2023-01-21T10:23:10.580Z,1008.90
2023-01-21T10:24:10.563Z,1008.90
2023-01-21T10:25:10.572Z,1008.89
2023-01-21T10:26:10.565Z,1008.92
2023-01-21T10:27:10.544Z,1008.94
2023-01-21T10:28:10.526Z,1008.93
2023-01-21T10:29:10.528Z,1008.90
2023-01-21T10:30:10.516Z,1008.92
2023-01-21T10:31:10.635Z,1008.94
2023-01-21T10:32:10.487Z,1008.93
2023-01-21T10:33:10.479Z,1008.95
2023-01-21T10:34:10.482Z,1008.95
2023-01-21T10:35:10.464Z,1008.95
2023-01-21T10:36:10.447Z,1008.94
2023-01-21T10:37:10.458Z,1008.95
2023-01-21T10:38:10.471Z,1008.97
2023-01-21T10:39:10.429Z,1008.98
2023-01-21T10:40:10.423Z,1008.97
2023-01-21T10:41:10.405Z,1008.96
2023-01-21T10:42:10.391Z,1008.98
2023-01-21T10:43:10.387Z,1008.96
2023-01-21T10:44:10.367Z,1008.97
2023-01-21T10:45:10.367Z,1008.97
2023-01-21T10:46:10.372Z,1008.97
2023-01-21T10:47:10.341Z,1008.97
2023-01-21T10:48:10.336Z,1008.97
2023-01-21T10:49:10.323Z,1008.97
2023-01-21T10:50:10.314Z,1008.98
2023-01-21T10:51:10.350Z,1008.99
2023-01-21T10:52:10.289Z,1008.98
2023-01-21T10:53:10.291Z,1008.94
2023-01-21T10:54:10.274Z,1008.97
2023-01-21T10:55:10.270Z,1008.97
2023-01-21T10:56:10.253Z,1008.97
2023-01-21T10:57:10.246Z,1008.94
2023-01-21T10:58:10.234Z,1008.90
2023-01-21T10:59:10.225Z,1008.83
2023-01-21T11:00:10.215Z,1008.77
2023-01-21T11:01:10.231Z,1008.76
2023-01-21T11:02:10.343Z,1008.77
2023-01-21T11:03:10.185Z,1008.79
2023-01-21T11:04:10.171Z,1008.79
2023-01-21T11:05:10.170Z,1008.77
2023-01-21T11:06:10.150Z,1008.75
2023-01-21T11:07:10.144Z,1008.72
2023-01-21T11:08:10.133Z,1008.69
2023-01-21T11:09:10.161Z,1008.67
2023-01-21T11:10:10.116Z,1008.68
2023-01-21T11:11:10.108Z,1008.68
2023-01-21T11:12:10.092Z,1008.68
2023-01-21T11:13:10.084Z,1008.67
2023-01-21T11:14:10.087Z,1008.68
2023-01-21T11:15:10.073Z,1008.70
2023-01-21T11:16:10.159Z,1008.71
2023-01-21T11:17:10.054Z,1008.72
2023-01-21T11:18:10.027Z,1008.74
2023-01-21T11:19:10.035Z,1008.77
2023-01-21T11:20:10.017Z,1008.77
2023-01-21T11:21:10.009Z,1008.77
2023-01-21T11:22:10.032Z,1008.76
2023-01-21T11:23:09.990Z,1008.78
2023-01-21T11:24:09.973Z,1008.78
2023-01-21T11:25:09.985Z,1008.78
2023-01-21T11:26:10.473Z,1008.78
2023-01-21T11:27:09.948Z,1008.81
2023-01-21T11:28:09.938Z,1008.82
2023-01-21T11:29:09.946Z,1008.81
2023-01-21T11:30:26.125Z,1008.80
2023-01-21T11:31:10.074Z,1008.81
2023-01-21T11:32:09.957Z,1008.81
2023-01-21T11:33:09.889Z,1008.79
2023-01-21T11:34:09.887Z,1008.77
2023-01-21T11:35:10.669Z,1008.80
2023-01-21T11:36:09.855Z,1008.80
2023-01-21T11:37:09.862Z,1008.80
2023-01-21T11:38:09.848Z,1008.79
2023-01-21T11:39:09.839Z,1008.79
2023-01-21T11:40:09.831Z,1008.81
2023-01-21T11:41:11.082Z,1008.79
2023-01-21T11:42:09.817Z,1008.84
2023-01-21T11:43:09.793Z,1008.78
2023-01-21T11:44:09.790Z,1008.79
2023-01-21T11:45:09.792Z,1008.79
2023-01-21T11:46:09.789Z,1008.80
2023-01-21T11:47:09.750Z,1008.82
2023-01-21T11:48:09.730Z,1008.75
2023-01-21T11:49:09.724Z,1008.75
2023-01-21T11:50:09.746Z,1008.76
2023-01-21T11:51:09.725Z,1008.78
2023-01-21T11:52:09.701Z,1008.75
2023-01-21T11:53:09.686Z,1008.78
2023-01-21T11:54:09.677Z,1008.80
2023-01-21T11:55:09.666Z,1008.81
2023-01-21T11:56:09.672Z,1008.77
2023-01-21T11:57:09.650Z,1008.75
2023-01-21T11:58:09.646Z,1008.77
2023-01-21T11:59:09.639Z,1008.79
2023-01-21T12:00:09.619Z,1008.79
2023-01-21T12:01:09.627Z,1008.74
2023-01-21T12:02:09.606Z,1008.79
2023-01-21T12:03:09.587Z,1008.82
2023-01-21T12:04:09.622Z,1008.76
2023-01-21T12:05:09.573Z,1008.74
2023-01-21T12:06:09.560Z,1008.76